sensor_id;sensor_type;location;lat;lon;timestamp;P1;durP1;ratioP1;P2;durP2;ratioP2
59040;SDS011;44825;53.200;6.448;2022-09-30T00:00:58;5.45;;;2.45;;
59040;SDS011;44825;53.200;6.448;2022-09-30T00:03:25;7.72;;;2.58;;
59040;SDS011;44825;53.200;6.448;2022-09-30T00:05:56;4.38;;;2.70;;
59040;SDS011;44825;53.200;6.448;2022-09-30T00:08:24;6.75;;;2.50;;
59040;SDS011;44825;53.200;6.448;2022-09-30T00:10:59;5.25;;;2.60;;
59040;SDS011;44825;53.200;6.448;2022-09-30T00:13:29;4.10;;;2.28;;
59040;SDS011;44825;53.200;6.448;2022-09-30T00:15:57;5.38;;;2.30;;
59040;SDS011;44825;53.200;6.448;2022-09-30T00:18:25;3.75;;;2.00;;
59040;SDS011;44825;53.200;6.448;2022-09-30T00:20:52;5.15;;;2.30;;
59040;SDS011;44825;53.200;6.448;2022-09-30T00:23:20;5.57;;;2.20;;
59040;SDS011;44825;53.200;6.448;2022-09-30T00:25:49;3.97;;;2.28;;
59040;SDS011;44825;53.200;6.448;2022-09-30T00:28:18;4.60;;;2.28;;
59040;SDS011;44825;53.200;6.448;2022-09-30T00:30:45;3.88;;;1.95;;
59040;SDS011;44825;53.200;6.448;2022-09-30T00:33:12;4.60;;;2.08;;
59040;SDS011;44825;53.200;6.448;2022-09-30T00:35:40;3.47;;;2.10;;
59040;SDS011;44825;53.200;6.448;2022-09-30T00:38:07;4.40;;;2.22;;
59040;SDS011;44825;53.200;6.448;2022-09-30T00:40:36;9.88;;;3.17;;
59040;SDS011;44825;53.200;6.448;2022-09-30T00:43:04;3.00;;;1.60;;
59040;SDS011;44825;53.200;6.448;2022-09-30T00:45:40;3.08;;;1.67;;
59040;SDS011;44825;53.200;6.448;2022-09-30T00:48:15;4.22;;;2.13;;
59040;SDS011;44825;53.200;6.448;2022-09-30T00:50:45;4.38;;;2.10;;
59040;SDS011;44825;53.200;6.448;2022-09-30T00:53:21;4.75;;;2.08;;
59040;SDS011;44825;53.200;6.448;2022-09-30T00:55:55;3.25;;;1.83;;
59040;SDS011;44825;53.200;6.448;2022-09-30T00:58:29;4.07;;;2.10;;
59040;SDS011;44825;53.200;6.448;2022-09-30T01:01:02;3.95;;;1.90;;
59040;SDS011;44825;53.200;6.448;2022-09-30T01:03:30;3.90;;;1.00;;
59040;SDS011;44825;53.200;6.448;2022-09-30T01:06:01;4.15;;;0.98;;
59040;SDS011;44825;53.200;6.448;2022-09-30T01:08:29;4.75;;;0.95;;
59040;SDS011;44825;53.200;6.448;2022-09-30T01:10:57;3.60;;;1.00;;
59040;SDS011;44825;53.200;6.448;2022-09-30T01:13:25;1.92;;;1.17;;
59040;SDS011;44825;53.200;6.448;2022-09-30T01:16:00;2.60;;;1.50;;
59040;SDS011;44825;53.200;6.448;2022-09-30T01:18:47;3.00;;;1.80;;
59040;SDS011;44825;53.200;6.448;2022-09-30T01:27:29;5.20;;;1.70;;
59040;SDS011;44825;53.200;6.448;2022-09-30T01:30:18;2.83;;;1.60;;
59040;SDS011;44825;53.200;6.448;2022-09-30T01:32:55;4.03;;;1.95;;
59040;SDS011;44825;53.200;6.448;2022-09-30T01:35:37;3.70;;;2.10;;
59040;SDS011;44825;53.200;6.448;2022-09-30T01:38:17;3.95;;;1.95;;
59040;SDS011;44825;53.200;6.448;2022-09-30T01:40:53;4.90;;;2.05;;
59040;SDS011;44825;53.200;6.448;2022-09-30T01:43:29;3.53;;;1.98;;
59040;SDS011;44825;53.200;6.448;2022-09-30T01:46:07;4.55;;;2.55;;
59040;SDS011;44825;53.200;6.448;2022-09-30T01:48:50;4.30;;;2.08;;
59040;SDS011;44825;53.200;6.448;2022-09-30T01:51:26;2.95;;;1.33;;
59040;SDS011;44825;53.200;6.448;2022-09-30T01:53:59;2.42;;;1.40;;
59040;SDS011;44825;53.200;6.448;2022-09-30T01:56:31;4.50;;;1.85;;
59040;SDS011;44825;53.200;6.448;2022-09-30T01:59:02;3.90;;;1.90;;
59040;SDS011;44825;53.200;6.448;2022-09-30T02:01:34;4.57;;;2.03;;
59040;SDS011;44825;53.200;6.448;2022-09-30T02:04:07;3.20;;;1.70;;
59040;SDS011;44825;53.200;6.448;2022-09-30T02:06:40;3.58;;;1.80;;
59040;SDS011;44825;53.200;6.448;2022-09-30T02:09:14;5.38;;;2.10;;
59040;SDS011;44825;53.200;6.448;2022-09-30T02:11:47;3.65;;;1.83;;
59040;SDS011;44825;53.200;6.448;2022-09-30T02:14:15;6.40;;;1.50;;
59040;SDS011;44825;53.200;6.448;2022-09-30T02:16:46;48.08;;;3.72;;
59040;SDS011;44825;53.200;6.448;2022-09-30T02:19:18;22.30;;;2.40;;
59040;SDS011;44825;53.200;6.448;2022-09-30T02:21:51;4.43;;;1.02;;
59040;SDS011;44825;53.200;6.448;2022-09-30T02:24:23;3.50;;;1.58;;
59040;SDS011;44825;53.200;6.448;2022-09-30T02:26:53;14.93;;;2.03;;
59040;SDS011;44825;53.200;6.448;2022-09-30T02:29:24;10.00;;;1.70;;
59040;SDS011;44825;53.200;6.448;2022-09-30T02:31:56;53.92;;;2.85;;
59040;SDS011;44825;53.200;6.448;2022-09-30T02:34:33;1.67;;;1.00;;
59040;SDS011;44825;53.200;6.448;2022-09-30T02:37:04;1.58;;;1.05;;
59040;SDS011;44825;53.200;6.448;2022-09-30T02:39:39;2.00;;;1.10;;
59040;SDS011;44825;53.200;6.448;2022-09-30T02:42:13;2.33;;;1.27;;
59040;SDS011;44825;53.200;6.448;2022-09-30T02:44:44;3.95;;;1.65;;
59040;SDS011;44825;53.200;6.448;2022-09-30T02:47:13;2.47;;;1.20;;
59040;SDS011;44825;53.200;6.448;2022-09-30T02:49:54;2.78;;;1.17;;
59040;SDS011;44825;53.200;6.448;2022-09-30T02:52:26;8.52;;;1.30;;
59040;SDS011;44825;53.200;6.448;2022-09-30T02:55:02;5.38;;;1.30;;
59040;SDS011;44825;53.200;6.448;2022-09-30T02:57:41;9.85;;;1.67;;
59040;SDS011;44825;53.200;6.448;2022-09-30T03:00:17;5.38;;;1.45;;
59040;SDS011;44825;53.200;6.448;2022-09-30T03:02:45;16.55;;;1.88;;
59040;SDS011;44825;53.200;6.448;2022-09-30T03:05:14;6.55;;;1.60;;
59040;SDS011;44825;53.200;6.448;2022-09-30T03:07:42;11.10;;;1.27;;
59040;SDS011;44825;53.200;6.448;2022-09-30T03:10:12;5.20;;;1.40;;
59040;SDS011;44825;53.200;6.448;2022-09-30T03:12:44;1.25;;;0.85;;
59040;SDS011;44825;53.200;6.448;2022-09-30T03:15:29;3.22;;;1.45;;
59040;SDS011;44825;53.200;6.448;2022-09-30T03:18:10;2.00;;;1.30;;
59040;SDS011;44825;53.200;6.448;2022-09-30T03:21:00;3.95;;;1.95;;
59040;SDS011;44825;53.200;6.448;2022-09-30T03:23:45;5.43;;;1.95;;
59040;SDS011;44825;53.200;6.448;2022-09-30T03:26:25;3.30;;;1.80;;
59040;SDS011;44825;53.200;6.448;2022-09-30T03:29:04;3.42;;;1.80;;
59040;SDS011;44825;53.200;6.448;2022-09-30T03:31:39;3.78;;;2.15;;
59040;SDS011;44825;53.200;6.448;2022-09-30T03:34:13;3.85;;;2.13;;
59040;SDS011;44825;53.200;6.448;2022-09-30T03:36:49;4.35;;;1.85;;
59040;SDS011;44825;53.200;6.448;2022-09-30T03:39:28;3.65;;;1.90;;
59040;SDS011;44825;53.200;6.448;2022-09-30T03:42:04;3.75;;;2.08;;
59040;SDS011;44825;53.200;6.448;2022-09-30T03:44:39;9.18;;;1.83;;
59040;SDS011;44825;53.200;6.448;2022-09-30T03:47:12;3.47;;;1.88;;
59040;SDS011;44825;53.200;6.448;2022-09-30T03:49:42;3.80;;;1.95;;
59040;SDS011;44825;53.200;6.448;2022-09-30T03:52:15;5.22;;;1.80;;
59040;SDS011;44825;53.200;6.448;2022-09-30T03:54:43;3.67;;;2.10;;
59040;SDS011;44825;53.200;6.448;2022-09-30T03:57:13;4.32;;;2.35;;
59040;SDS011;44825;53.200;6.448;2022-09-30T03:59:40;4.30;;;2.50;;
59040;SDS011;44825;53.200;6.448;2022-09-30T04:02:08;3.42;;;2.03;;
59040;SDS011;44825;53.200;6.448;2022-09-30T04:04:38;5.28;;;2.17;;
59040;SDS011;44825;53.200;6.448;2022-09-30T04:07:06;3.47;;;2.00;;
59040;SDS011;44825;53.200;6.448;2022-09-30T04:09:36;3.88;;;2.20;;
59040;SDS011;44825;53.200;6.448;2022-09-30T04:12:03;3.92;;;2.22;;
59040;SDS011;44825;53.200;6.448;2022-09-30T04:14:31;3.15;;;2.00;;
59040;SDS011;44825;53.200;6.448;2022-09-30T04:17:00;3.88;;;2.30;;
59040;SDS011;44825;53.200;6.448;2022-09-30T04:19:27;4.00;;;2.30;;
59040;SDS011;44825;53.200;6.448;2022-09-30T04:21:54;5.82;;;2.28;;
59040;SDS011;44825;53.200;6.448;2022-09-30T04:24:22;3.58;;;2.08;;
59040;SDS011;44825;53.200;6.448;2022-09-30T04:26:51;5.03;;;2.63;;
59040;SDS011;44825;53.200;6.448;2022-09-30T04:29:19;4.63;;;2.38;;
59040;SDS011;44825;53.200;6.448;2022-09-30T04:31:46;5.65;;;2.15;;
59040;SDS011;44825;53.200;6.448;2022-09-30T04:34:13;4.00;;;2.33;;
59040;SDS011;44825;53.200;6.448;2022-09-30T04:36:41;4.72;;;2.20;;
59040;SDS011;44825;53.200;6.448;2022-09-30T04:39:08;6.45;;;2.28;;
59040;SDS011;44825;53.200;6.448;2022-09-30T04:41:36;4.68;;;2.00;;
59040;SDS011;44825;53.200;6.448;2022-09-30T04:44:04;3.55;;;1.80;;
59040;SDS011;44825;53.200;6.448;2022-09-30T04:46:32;4.22;;;2.03;;
59040;SDS011;44825;53.200;6.448;2022-09-30T04:49:01;8.93;;;2.20;;
59040;SDS011;44825;53.200;6.448;2022-09-30T04:51:29;4.07;;;1.85;;
59040;SDS011;44825;53.200;6.448;2022-09-30T04:53:56;7.30;;;1.88;;
59040;SDS011;44825;53.200;6.448;2022-09-30T04:56:24;26.45;;;2.80;;
59040;SDS011;44825;53.200;6.448;2022-09-30T04:58:51;3.95;;;1.85;;
59040;SDS011;44825;53.200;6.448;2022-09-30T05:01:20;3.90;;;2.13;;
59040;SDS011;44825;53.200;6.448;2022-09-30T05:03:47;5.80;;;1.98;;
59040;SDS011;44825;53.200;6.448;2022-09-30T05:06:15;32.83;;;2.95;;
59040;SDS011;44825;53.200;6.448;2022-09-30T05:08:43;8.07;;;1.92;;
59040;SDS011;44825;53.200;6.448;2022-09-30T05:11:12;25.17;;;2.80;;
59040;SDS011;44825;53.200;6.448;2022-09-30T05:13:41;13.57;;;2.08;;
59040;SDS011;44825;53.200;6.448;2022-09-30T05:16:10;19.10;;;2.22;;
59040;SDS011;44825;53.200;6.448;2022-09-30T05:18:39;7.15;;;2.00;;
59040;SDS011;44825;53.200;6.448;2022-09-30T05:21:10;9.85;;;1.85;;
59040;SDS011;44825;53.200;6.448;2022-09-30T05:23:39;4.88;;;1.98;;
59040;SDS011;44825;53.200;6.448;2022-09-30T05:26:06;6.63;;;2.30;;
59040;SDS011;44825;53.200;6.448;2022-09-30T05:28:34;4.85;;;2.35;;
59040;SDS011;44825;53.200;6.448;2022-09-30T05:31:02;4.47;;;1.88;;
59040;SDS011;44825;53.200;6.448;2022-09-30T05:33:31;4.10;;;1.63;;
59040;SDS011;44825;53.200;6.448;2022-09-30T05:36:01;4.90;;;1.67;;
59040;SDS011;44825;53.200;6.448;2022-09-30T05:38:29;3.78;;;1.88;;
59040;SDS011;44825;53.200;6.448;2022-09-30T05:40:57;3.05;;;1.83;;
59040;SDS011;44825;53.200;6.448;2022-09-30T05:43:24;3.25;;;1.55;;
59040;SDS011;44825;53.200;6.448;2022-09-30T05:45:52;3.03;;;1.63;;
59040;SDS011;44825;53.200;6.448;2022-09-30T05:48:20;3.22;;;1.65;;
59040;SDS011;44825;53.200;6.448;2022-09-30T05:50:52;3.42;;;1.65;;
59040;SDS011;44825;53.200;6.448;2022-09-30T05:53:21;3.85;;;1.88;;
59040;SDS011;44825;53.200;6.448;2022-09-30T05:55:49;4.68;;;2.50;;
59040;SDS011;44825;53.200;6.448;2022-09-30T05:58:16;6.32;;;2.65;;
59040;SDS011;44825;53.200;6.448;2022-09-30T06:00:44;5.10;;;2.70;;
59040;SDS011;44825;53.200;6.448;2022-09-30T06:03:14;7.13;;;2.55;;
59040;SDS011;44825;53.200;6.448;2022-09-30T06:05:42;5.50;;;2.70;;
59040;SDS011;44825;53.200;6.448;2022-09-30T06:08:10;14.32;;;1.90;;
59040;SDS011;44825;53.200;6.448;2022-09-30T06:10:40;2.80;;;1.20;;
59040;SDS011;44825;53.200;6.448;2022-09-30T06:13:08;2.95;;;1.25;;
59040;SDS011;44825;53.200;6.448;2022-09-30T06:15:36;5.18;;;1.27;;
59040;SDS011;44825;53.200;6.448;2022-09-30T06:18:04;2.72;;;1.50;;
59040;SDS011;44825;53.200;6.448;2022-09-30T06:20:31;2.97;;;1.73;;
59040;SDS011;44825;53.200;6.448;2022-09-30T06:22:58;5.30;;;2.40;;
59040;SDS011;44825;53.200;6.448;2022-09-30T06:25:26;4.22;;;2.40;;
59040;SDS011;44825;53.200;6.448;2022-09-30T06:27:55;6.20;;;3.42;;
59040;SDS011;44825;53.200;6.448;2022-09-30T06:30:23;5.57;;;3.17;;
59040;SDS011;44825;53.200;6.448;2022-09-30T06:32:51;5.45;;;2.97;;
59040;SDS011;44825;53.200;6.448;2022-09-30T06:35:22;5.38;;;3.05;;
59040;SDS011;44825;53.200;6.448;2022-09-30T06:37:53;5.28;;;3.08;;
59040;SDS011;44825;53.200;6.448;2022-09-30T06:40:20;5.00;;;3.20;;
59040;SDS011;44825;53.200;6.448;2022-09-30T06:42:47;8.38;;;3.50;;
59040;SDS011;44825;53.200;6.448;2022-09-30T06:45:16;6.57;;;3.13;;
59040;SDS011;44825;53.200;6.448;2022-09-30T06:47:46;5.88;;;3.20;;
59040;SDS011;44825;53.200;6.448;2022-09-30T06:50:16;5.90;;;3.33;;
59040;SDS011;44825;53.200;6.448;2022-09-30T06:52:43;6.30;;;3.15;;
59040;SDS011;44825;53.200;6.448;2022-09-30T06:55:12;6.60;;;3.20;;
59040;SDS011;44825;53.200;6.448;2022-09-30T06:57:40;4.93;;;2.78;;
59040;SDS011;44825;53.200;6.448;2022-09-30T07:00:08;5.15;;;2.88;;
59040;SDS011;44825;53.200;6.448;2022-09-30T07:02:38;3.75;;;2.25;;
59040;SDS011;44825;53.200;6.448;2022-09-30T07:05:05;5.07;;;2.40;;
59040;SDS011;44825;53.200;6.448;2022-09-30T07:07:33;5.55;;;2.70;;
59040;SDS011;44825;53.200;6.448;2022-09-30T07:10:01;5.20;;;2.38;;
59040;SDS011;44825;53.200;6.448;2022-09-30T07:12:29;4.38;;;2.30;;
59040;SDS011;44825;53.200;6.448;2022-09-30T07:14:56;3.97;;;2.25;;
59040;SDS011;44825;53.200;6.448;2022-09-30T07:17:24;4.93;;;2.60;;
59040;SDS011;44825;53.200;6.448;2022-09-30T07:19:53;4.78;;;3.00;;
59040;SDS011;44825;53.200;6.448;2022-09-30T07:22:21;6.43;;;3.00;;
59040;SDS011;44825;53.200;6.448;2022-09-30T07:24:57;7.13;;;3.40;;
59040;SDS011;44825;53.200;6.448;2022-09-30T07:27:26;6.00;;;3.35;;
59040;SDS011;44825;53.200;6.448;2022-09-30T07:29:54;6.22;;;3.00;;
59040;SDS011;44825;53.200;6.448;2022-09-30T07:32:21;8.20;;;3.85;;
59040;SDS011;44825;53.200;6.448;2022-09-30T07:34:49;6.28;;;3.63;;
59040;SDS011;44825;53.200;6.448;2022-09-30T07:37:18;6.28;;;3.58;;
59040;SDS011;44825;53.200;6.448;2022-09-30T07:39:46;5.57;;;3.10;;
59040;SDS011;44825;53.200;6.448;2022-09-30T07:42:15;7.72;;;3.95;;
59040;SDS011;44825;53.200;6.448;2022-09-30T07:44:44;8.13;;;3.63;;
59040;SDS011;44825;53.200;6.448;2022-09-30T07:47:12;6.45;;;3.67;;
59040;SDS011;44825;53.200;6.448;2022-09-30T07:49:41;6.05;;;3.67;;
59040;SDS011;44825;53.200;6.448;2022-09-30T07:52:09;7.03;;;3.80;;
59040;SDS011;44825;53.200;6.448;2022-09-30T07:54:39;6.57;;;3.63;;
59040;SDS011;44825;53.200;6.448;2022-09-30T07:57:07;6.65;;;3.47;;
59040;SDS011;44825;53.200;6.448;2022-09-30T07:59:36;6.35;;;3.97;;
59040;SDS011;44825;53.200;6.448;2022-09-30T08:02:05;7.00;;;3.78;;
59040;SDS011;44825;53.200;6.448;2022-09-30T08:04:36;6.85;;;3.95;;
59040;SDS011;44825;53.200;6.448;2022-09-30T08:07:03;7.45;;;5.07;;
59040;SDS011;44825;53.200;6.448;2022-09-30T08:09:31;11.38;;;5.25;;
59040;SDS011;44825;53.200;6.448;2022-09-30T08:12:02;8.23;;;4.90;;
59040;SDS011;44825;53.200;6.448;2022-09-30T08:14:30;6.65;;;4.13;;
59040;SDS011;44825;53.200;6.448;2022-09-30T08:16:57;7.47;;;4.97;;
59040;SDS011;44825;53.200;6.448;2022-09-30T08:19:25;7.88;;;4.78;;
59040;SDS011;44825;53.200;6.448;2022-09-30T08:21:53;7.22;;;4.20;;
59040;SDS011;44825;53.200;6.448;2022-09-30T08:24:22;7.53;;;4.40;;
59040;SDS011;44825;53.200;6.448;2022-09-30T08:26:49;7.68;;;4.40;;
59040;SDS011;44825;53.200;6.448;2022-09-30T08:29:18;9.90;;;5.10;;
59040;SDS011;44825;53.200;6.448;2022-09-30T08:31:46;7.57;;;4.50;;
59040;SDS011;44825;53.200;6.448;2022-09-30T08:34:14;7.03;;;4.18;;
59040;SDS011;44825;53.200;6.448;2022-09-30T08:36:42;7.53;;;4.68;;
59040;SDS011;44825;53.200;6.448;2022-09-30T08:39:11;8.77;;;4.97;;
59040;SDS011;44825;53.200;6.448;2022-09-30T08:41:44;9.75;;;5.20;;
59040;SDS011;44825;53.200;6.448;2022-09-30T08:44:32;8.20;;;4.88;;
59040;SDS011;44825;53.200;6.448;2022-09-30T08:47:14;8.77;;;5.03;;
59040;SDS011;44825;53.200;6.448;2022-09-30T08:50:04;10.43;;;5.07;;
59040;SDS011;44825;53.200;6.448;2022-09-30T08:52:38;8.10;;;5.05;;
59040;SDS011;44825;53.200;6.448;2022-09-30T08:55:10;10.48;;;5.68;;
59040;SDS011;44825;53.200;6.448;2022-09-30T08:57:44;7.80;;;4.78;;
59040;SDS011;44825;53.200;6.448;2022-09-30T09:00:13;7.90;;;5.20;;
59040;SDS011;44825;53.200;6.448;2022-09-30T09:02:43;10.85;;;5.55;;
59040;SDS011;44825;53.200;6.448;2022-09-30T09:05:15;11.98;;;6.05;;
59040;SDS011;44825;53.200;6.448;2022-09-30T09:07:52;8.65;;;5.93;;
59040;SDS011;44825;53.200;6.448;2022-09-30T09:10:29;9.25;;;5.55;;
59040;SDS011;44825;53.200;6.448;2022-09-30T09:13:04;8.10;;;5.10;;
59040;SDS011;44825;53.200;6.448;2022-09-30T09:15:46;11.20;;;5.70;;
59040;SDS011;44825;53.200;6.448;2022-09-30T09:18:26;11.57;;;5.82;;
59040;SDS011;44825;53.200;6.448;2022-09-30T09:21:03;10.32;;;5.97;;
59040;SDS011;44825;53.200;6.448;2022-09-30T09:23:41;9.07;;;5.10;;
59040;SDS011;44825;53.200;6.448;2022-09-30T09:26:09;7.57;;;4.82;;
59040;SDS011;44825;53.200;6.448;2022-09-30T09:28:39;6.82;;;3.97;;
59040;SDS011;44825;53.200;6.448;2022-09-30T09:31:13;8.00;;;4.15;;
59040;SDS011;44825;53.200;6.448;2022-09-30T09:33:42;7.60;;;4.50;;
59040;SDS011;44825;53.200;6.448;2022-09-30T09:36:16;6.72;;;4.47;;
59040;SDS011;44825;53.200;6.448;2022-09-30T09:38:55;7.95;;;4.85;;
59040;SDS011;44825;53.200;6.448;2022-09-30T09:41:32;6.22;;;3.67;;
59040;SDS011;44825;53.200;6.448;2022-09-30T09:44:09;6.93;;;4.38;;
59040;SDS011;44825;53.200;6.448;2022-09-30T09:46:45;6.30;;;3.47;;
59040;SDS011;44825;53.200;6.448;2022-09-30T09:54:52;5.80;;;3.60;;
59040;SDS011;44825;53.200;6.448;2022-09-30T09:57:22;6.82;;;4.07;;
59040;SDS011;44825;53.200;6.448;2022-09-30T09:59:55;6.13;;;4.18;;
59040;SDS011;44825;53.200;6.448;2022-09-30T10:02:26;6.53;;;4.22;;
59040;SDS011;44825;53.200;6.448;2022-09-30T10:04:54;6.95;;;3.85;;
59040;SDS011;44825;53.200;6.448;2022-09-30T10:07:29;8.25;;;4.68;;
59040;SDS011;44825;53.200;6.448;2022-09-30T10:10:05;5.85;;;3.85;;
59040;SDS011;44825;53.200;6.448;2022-09-30T10:12:38;6.25;;;4.13;;
59040;SDS011;44825;53.200;6.448;2022-09-30T10:15:13;6.90;;;4.60;;
59040;SDS011;44825;53.200;6.448;2022-09-30T10:17:51;6.53;;;4.28;;
59040;SDS011;44825;53.200;6.448;2022-09-30T10:20:22;7.05;;;4.97;;
59040;SDS011;44825;53.200;6.448;2022-09-30T10:23:02;6.97;;;4.85;;
59040;SDS011;44825;53.200;6.448;2022-09-30T10:25:35;7.10;;;4.57;;
59040;SDS011;44825;53.200;6.448;2022-09-30T10:28:08;6.80;;;4.47;;
59040;SDS011;44825;53.200;6.448;2022-09-30T10:30:48;7.80;;;4.57;;
59040;SDS011;44825;53.200;6.448;2022-09-30T10:33:21;6.75;;;4.28;;
59040;SDS011;44825;53.200;6.448;2022-09-30T10:35:56;9.80;;;4.43;;
59040;SDS011;44825;53.200;6.448;2022-09-30T10:38:28;7.40;;;4.45;;
59040;SDS011;44825;53.200;6.448;2022-09-30T10:40:56;7.25;;;4.30;;
59040;SDS011;44825;53.200;6.448;2022-09-30T10:43:25;6.57;;;4.18;;
59040;SDS011;44825;53.200;6.448;2022-09-30T10:45:57;8.05;;;4.55;;
59040;SDS011;44825;53.200;6.448;2022-09-30T10:48:34;7.72;;;3.60;;
59040;SDS011;44825;53.200;6.448;2022-09-30T10:51:03;5.50;;;3.13;;
59040;SDS011;44825;53.200;6.448;2022-09-30T10:53:43;6.00;;;2.80;;
59040;SDS011;44825;53.200;6.448;2022-09-30T10:56:10;5.32;;;2.80;;
59040;SDS011;44825;53.200;6.448;2022-09-30T10:58:41;6.18;;;2.42;;
59040;SDS011;44825;53.200;6.448;2022-09-30T11:01:15;4.20;;;2.30;;
59040;SDS011;44825;53.200;6.448;2022-09-30T11:03:53;4.72;;;2.60;;
59040;SDS011;44825;53.200;6.448;2022-09-30T11:06:28;4.15;;;2.72;;
59040;SDS011;44825;53.200;6.448;2022-09-30T11:09:00;5.85;;;2.75;;
59040;SDS011;44825;53.200;6.448;2022-09-30T11:11:33;4.70;;;2.33;;
59040;SDS011;44825;53.200;6.448;2022-09-30T11:14:13;3.97;;;2.17;;
59040;SDS011;44825;53.200;6.448;2022-09-30T11:16:50;4.10;;;2.50;;
59040;SDS011;44825;53.200;6.448;2022-09-30T11:19:27;6.45;;;2.67;;
59040;SDS011;44825;53.200;6.448;2022-09-30T11:21:59;4.88;;;2.45;;
59040;SDS011;44825;53.200;6.448;2022-09-30T11:24:39;6.13;;;3.03;;
59040;SDS011;44825;53.200;6.448;2022-09-30T11:27:11;4.20;;;2.28;;
59040;SDS011;44825;53.200;6.448;2022-09-30T11:29:49;4.95;;;2.65;;
59040;SDS011;44825;53.200;6.448;2022-09-30T11:32:29;4.05;;;2.13;;
59040;SDS011;44825;53.200;6.448;2022-09-30T11:35:14;6.70;;;1.83;;
59040;SDS011;44825;53.200;6.448;2022-09-30T11:37:57;3.45;;;1.63;;
59040;SDS011;44825;53.200;6.448;2022-09-30T11:40:29;3.70;;;1.98;;
59040;SDS011;44825;53.200;6.448;2022-09-30T11:43:07;3.92;;;1.50;;
59040;SDS011;44825;53.200;6.448;2022-09-30T11:45:47;5.18;;;1.95;;
59040;SDS011;44825;53.200;6.448;2022-09-30T11:48:32;2.58;;;1.50;;
59040;SDS011;44825;53.200;6.448;2022-09-30T11:51:09;3.63;;;1.90;;
59040;SDS011;44825;53.200;6.448;2022-09-30T11:53:47;3.28;;;1.77;;
59040;SDS011;44825;53.200;6.448;2022-09-30T11:56:29;3.33;;;1.60;;
59040;SDS011;44825;53.200;6.448;2022-09-30T11:59:06;4.93;;;1.60;;
59040;SDS011;44825;53.200;6.448;2022-09-30T12:01:41;3.53;;;1.65;;
59040;SDS011;44825;53.200;6.448;2022-09-30T12:04:12;5.30;;;1.50;;
59040;SDS011;44825;53.200;6.448;2022-09-30T12:06:45;3.95;;;1.80;;
59040;SDS011;44825;53.200;6.448;2022-09-30T12:09:19;4.10;;;1.60;;
59040;SDS011;44825;53.200;6.448;2022-09-30T12:11:52;3.07;;;1.43;;
59040;SDS011;44825;53.200;6.448;2022-09-30T12:14:25;2.63;;;1.42;;
59040;SDS011;44825;53.200;6.448;2022-09-30T12:16:59;2.45;;;1.20;;
59040;SDS011;44825;53.200;6.448;2022-09-30T12:19:32;3.35;;;1.45;;
59040;SDS011;44825;53.200;6.448;2022-09-30T12:22:08;2.55;;;1.08;;
59040;SDS011;44825;53.200;6.448;2022-09-30T12:24:40;5.43;;;1.30;;
59040;SDS011;44825;53.200;6.448;2022-09-30T12:27:13;2.30;;;0.98;;
59040;SDS011;44825;53.200;6.448;2022-09-30T12:29:46;3.33;;;1.40;;
59040;SDS011;44825;53.200;6.448;2022-09-30T12:35:51;2.83;;;1.30;;
59040;SDS011;44825;53.200;6.448;2022-09-30T12:39:05;3.65;;;1.20;;
59040;SDS011;44825;53.200;6.448;2022-09-30T12:42:01;3.20;;;1.50;;
59040;SDS011;44825;53.200;6.448;2022-09-30T12:47:36;3.42;;;1.67;;
59040;SDS011;44825;53.200;6.448;2022-09-30T12:50:11;4.00;;;1.48;;
59040;SDS011;44825;53.200;6.448;2022-09-30T12:52:42;3.42;;;1.73;;
59040;SDS011;44825;53.200;6.448;2022-09-30T12:55:16;4.05;;;1.52;;
59040;SDS011;44825;53.200;6.448;2022-09-30T12:57:50;3.88;;;1.70;;
59040;SDS011;44825;53.200;6.448;2022-09-30T13:00:19;3.53;;;1.58;;
59040;SDS011;44825;53.200;6.448;2022-09-30T13:02:51;2.05;;;1.23;;
59040;SDS011;44825;53.200;6.448;2022-09-30T13:08:31;3.35;;;1.48;;
59040;SDS011;44825;53.200;6.448;2022-09-30T13:11:39;3.92;;;1.30;;
59040;SDS011;44825;53.200;6.448;2022-09-30T13:14:14;2.65;;;1.30;;
59040;SDS011;44825;53.200;6.448;2022-09-30T13:19:53;3.70;;;1.70;;
59040;SDS011;44825;53.200;6.448;2022-09-30T13:25:23;4.03;;;2.03;;
59040;SDS011;44825;53.200;6.448;2022-09-30T13:27:53;3.08;;;1.30;;
59040;SDS011;44825;53.200;6.448;2022-09-30T13:30:49;3.45;;;1.58;;
59040;SDS011;44825;53.200;6.448;2022-09-30T13:33:40;1.77;;;1.25;;
59040;SDS011;44825;53.200;6.448;2022-09-30T13:36:25;3.28;;;1.75;;
59040;SDS011;44825;53.200;6.448;2022-09-30T13:44:48;4.53;;;1.77;;
59040;SDS011;44825;53.200;6.448;2022-09-30T13:47:25;4.47;;;2.03;;
59040;SDS011;44825;53.200;6.448;2022-09-30T13:49:59;8.32;;;2.97;;
59040;SDS011;44825;53.200;6.448;2022-09-30T13:52:32;4.53;;;2.08;;
59040;SDS011;44825;53.200;6.448;2022-09-30T13:55:04;3.65;;;1.70;;
59040;SDS011;44825;53.200;6.448;2022-09-30T13:57:39;3.30;;;1.70;;
59040;SDS011;44825;53.200;6.448;2022-09-30T14:00:16;3.95;;;1.88;;
59040;SDS011;44825;53.200;6.448;2022-09-30T14:02:50;5.60;;;2.08;;
59040;SDS011;44825;53.200;6.448;2022-09-30T14:05:32;3.50;;;1.80;;
59040;SDS011;44825;53.200;6.448;2022-09-30T14:11:28;4.07;;;2.38;;
59040;SDS011;44825;53.200;6.448;2022-09-30T14:14:24;5.43;;;2.92;;
59040;SDS011;44825;53.200;6.448;2022-09-30T14:17:28;6.22;;;2.75;;
59040;SDS011;44825;53.200;6.448;2022-09-30T14:20:23;4.63;;;2.42;;
59040;SDS011;44825;53.200;6.448;2022-09-30T14:22:58;4.97;;;2.88;;
59040;SDS011;44825;53.200;6.448;2022-09-30T14:25:26;5.30;;;2.70;;
59040;SDS011;44825;53.200;6.448;2022-09-30T14:30:30;4.30;;;2.10;;
59040;SDS011;44825;53.200;6.448;2022-09-30T14:33:08;4.78;;;1.95;;
59040;SDS011;44825;53.200;6.448;2022-09-30T14:35:37;4.93;;;1.80;;
59040;SDS011;44825;53.200;6.448;2022-09-30T14:38:07;4.03;;;2.03;;
59040;SDS011;44825;53.200;6.448;2022-09-30T14:40:47;4.15;;;1.88;;
59040;SDS011;44825;53.200;6.448;2022-09-30T14:43:17;4.40;;;2.00;;
59040;SDS011;44825;53.200;6.448;2022-09-30T14:45:49;4.25;;;2.00;;
59040;SDS011;44825;53.200;6.448;2022-09-30T14:48:21;2.95;;;1.45;;
59040;SDS011;44825;53.200;6.448;2022-09-30T14:50:55;4.28;;;1.73;;
59040;SDS011;44825;53.200;6.448;2022-09-30T14:53:25;3.65;;;1.90;;
59040;SDS011;44825;53.200;6.448;2022-09-30T14:55:54;3.92;;;1.70;;
59040;SDS011;44825;53.200;6.448;2022-09-30T14:58:23;4.63;;;1.67;;
59040;SDS011;44825;53.200;6.448;2022-09-30T15:00:57;6.78;;;2.08;;
59040;SDS011;44825;53.200;6.448;2022-09-30T15:03:33;3.42;;;2.00;;
59040;SDS011;44825;53.200;6.448;2022-09-30T15:06:02;3.85;;;1.80;;
59040;SDS011;44825;53.200;6.448;2022-09-30T15:08:30;4.63;;;2.00;;
59040;SDS011;44825;53.200;6.448;2022-09-30T15:10:58;4.68;;;1.80;;
59040;SDS011;44825;53.200;6.448;2022-09-30T15:13:26;5.07;;;1.90;;
59040;SDS011;44825;53.200;6.448;2022-09-30T15:15:56;4.85;;;1.92;;
59040;SDS011;44825;53.200;6.448;2022-09-30T15:18:28;4.18;;;1.63;;
59040;SDS011;44825;53.200;6.448;2022-09-30T15:23:29;4.57;;;1.90;;
59040;SDS011;44825;53.200;6.448;2022-09-30T15:25:58;5.72;;;2.05;;
59040;SDS011;44825;53.200;6.448;2022-09-30T15:28:27;3.65;;;1.80;;
59040;SDS011;44825;53.200;6.448;2022-09-30T15:30:55;4.95;;;1.80;;
59040;SDS011;44825;53.200;6.448;2022-09-30T15:33:24;3.55;;;1.95;;
59040;SDS011;44825;53.200;6.448;2022-09-30T15:36:04;5.82;;;1.75;;
59040;SDS011;44825;53.200;6.448;2022-09-30T15:38:34;3.45;;;1.50;;
59040;SDS011;44825;53.200;6.448;2022-09-30T15:41:04;6.45;;;1.77;;
59040;SDS011;44825;53.200;6.448;2022-09-30T15:43:36;4.32;;;1.83;;
59040;SDS011;44825;53.200;6.448;2022-09-30T15:49:00;6.05;;;1.48;;
59040;SDS011;44825;53.200;6.448;2022-09-30T15:51:37;4.07;;;1.42;;
59040;SDS011;44825;53.200;6.448;2022-09-30T15:54:25;2.55;;;1.40;;
59040;SDS011;44825;53.200;6.448;2022-09-30T15:56:57;4.38;;;2.05;;
59040;SDS011;44825;53.200;6.448;2022-09-30T16:02:27;3.55;;;1.80;;
59040;SDS011;44825;53.200;6.448;2022-09-30T16:04:56;2.60;;;1.23;;
59040;SDS011;44825;53.200;6.448;2022-09-30T16:07:27;4.72;;;1.40;;